sensor_id;sensor_type;location;lat;lon;timestamp;pressure;altitude;pressure_sealevel;temperature;humidity
12475;BME280;6302;42.624;23.334;2024-01-30T00:00:45;95112.72;;;0.26;100.00
12475;BME280;6302;42.624;23.334;2024-01-30T00:03:11;95103.84;;;0.27;100.00
12475;BME280;6302;42.624;23.334;2024-01-30T00:05:40;95122.72;;;0.19;100.00
12475;BME280;6302;42.624;23.334;2024-01-30T00:08:06;95124.84;;;0.17;100.00
12475;BME280;6302;42.624;23.334;2024-01-30T00:10:33;95117.66;;;0.09;100.00
12475;BME280;6302;42.624;23.334;2024-01-30T00:13:00;95123.97;;;0.03;100.00
12475;BME280;6302;42.624;23.334;2024-01-30T00:15:27;95124.69;;;-0.11;100.00
12475;BME280;6302;42.624;23.334;2024-01-30T00:17:54;95124.88;;;-0.07;100.00
12475;BME280;6302;42.624;23.334;2024-01-30T00:20:21;95127.00;;;-0.09;100.00
12475;BME280;6302;42.624;23.334;2024-01-30T00:22:49;95119.41;;;-0.06;100.00
12475;BME280;6302;42.624;23.334;2024-01-30T00:25:16;95128.44;;;0.02;100.00
12475;BME280;6302;42.624;23.334;2024-01-30T00:27:43;95129.41;;;0.06;100.00
12475;BME280;6302;42.624;23.334;2024-01-30T00:30:11;95130.88;;;-0.07;100.00
12475;BME280;6302;42.624;23.334;2024-01-30T00:32:38;95129.00;;;-0.01;100.00
12475;BME280;6302;42.624;23.334;2024-01-30T00:35:05;95131.53;;;0.04;100.00
12475;BME280;6302;42.624;23.334;2024-01-30T00:37:32;95121.31;;;0.08;100.00
12475;BME280;6302;42.624;23.334;2024-01-30T00:40:00;95127.53;;;0.12;100.00
12475;BME280;6302;42.624;23.334;2024-01-30T00:42:27;95126.19;;;0.14;100.00
12475;BME280;6302;42.624;23.334;2024-01-30T00:44:53;95129.28;;;0.16;100.00
12475;BME280;6302;42.624;23.334;2024-01-30T00:47:20;95123.78;;;0.18;100.00
12475;BME280;6302;42.624;23.334;2024-01-30T00:49:47;95122.44;;;0.20;100.00
12475;BME280;6302;42.624;23.334;2024-01-30T00:52:17;95125.03;;;0.20;100.00
12475;BME280;6302;42.624;23.334;2024-01-30T00:54:43;95128.91;;;0.23;100.00
12475;BME280;6302;42.624;23.334;2024-01-30T00:57:11;95126.31;;;0.23;100.00
12475;BME280;6302;42.624;23.334;2024-01-30T00:59:38;95130.47;;;0.24;100.00
12475;BME280;6302;42.624;23.334;2024-01-30T01:02:05;95116.72;;;0.18;100.00
12475;BME280;6302;42.624;23.334;2024-01-30T01:04:32;95110.97;;;0.21;100.00
12475;BME280;6302;42.624;23.334;2024-01-30T01:06:58;95111.25;;;0.20;100.00
12475;BME280;6302;42.624;23.334;2024-01-30T01:09:26;95112.06;;;0.15;100.00
12475;BME280;6302;42.624;23.334;2024-01-30T01:11:52;95114.19;;;0.13;100.00
12475;BME280;6302;42.624;23.334;2024-01-30T01:14:21;95120.47;;;0.12;100.00
12475;BME280;6302;42.624;23.334;2024-01-30T01:16:47;95112.66;;;0.12;100.00
12475;BME280;6302;42.624;23.334;2024-01-30T01:19:14;95119.47;;;0.08;100.00
12475;BME280;6302;42.624;23.334;2024-01-30T01:21:41;95110.69;;;0.04;100.00
12475;BME280;6302;42.624;23.334;2024-01-30T01:24:07;95116.16;;;0.03;100.00
12475;BME280;6302;42.624;23.334;2024-01-30T01:26:34;95113.53;;;0.03;100.00
12475;BME280;6302;42.624;23.334;2024-01-30T01:29:01;95111.22;;;0.01;100.00
12475;BME280;6302;42.624;23.334;2024-01-30T01:31:31;95111.78;;;-0.02;100.00
12475;BME280;6302;42.624;23.334;2024-01-30T01:33:57;95115.47;;;-0.03;100.00
12475;BME280;6302;42.624;23.334;2024-01-30T01:36:24;95119.91;;;-0.04;100.00
12475;BME280;6302;42.624;23.334;2024-01-30T01:38:51;95110.03;;;-0.07;100.00
12475;BME280;6302;42.624;23.334;2024-01-30T01:41:18;95116.56;;;-0.09;100.00
12475;BME280;6302;42.624;23.334;2024-01-30T01:43:44;95118.69;;;-0.11;100.00
12475;BME280;6302;42.624;23.334;2024-01-30T01:46:11;95119.78;;;-0.17;100.00
12475;BME280;6302;42.624;23.334;2024-01-30T01:48:40;95119.78;;;-0.17;100.00
12475;BME280;6302;42.624;23.334;2024-01-30T01:51:08;95121.34;;;-0.16;100.00
12475;BME280;6302;42.624;23.334;2024-01-30T01:53:36;95117.91;;;-0.12;100.00
12475;BME280;6302;42.624;23.334;2024-01-30T01:56:03;95112.94;;;-0.08;100.00
12475;BME280;6302;42.624;23.334;2024-01-30T01:58:32;95113.91;;;-0.04;100.00
12475;BME280;6302;42.624;23.334;2024-01-30T02:00:59;95124.06;;;-0.03;100.00
12475;BME280;6302;42.624;23.334;2024-01-30T02:03:26;95133.84;;;-0.13;100.00
12475;BME280;6302;42.624;23.334;2024-01-30T02:05:55;95124.09;;;-0.26;100.00
12475;BME280;6302;42.624;23.334;2024-01-30T02:08:22;95117.84;;;-0.25;100.00
12475;BME280;6302;42.624;23.334;2024-01-30T02:10:49;95130.16;;;-0.12;100.00
12475;BME280;6302;42.624;23.334;2024-01-30T02:13:16;95136.66;;;-0.10;100.00
12475;BME280;6302;42.624;23.334;2024-01-30T02:15:43;95133.91;;;-0.18;100.00
12475;BME280;6302;42.624;23.334;2024-01-30T02:18:09;95129.59;;;-0.28;100.00
12475;BME280;6302;42.624;23.334;2024-01-30T02:20:37;95125.81;;;-0.40;100.00
12475;BME280;6302;42.624;23.334;2024-01-30T02:23:07;95128.97;;;-0.43;100.00
12475;BME280;6302;42.624;23.334;2024-01-30T02:25:39;95110.03;;;-0.49;100.00
12475;BME280;6302;42.624;23.334;2024-01-30T02:28:09;95127.38;;;-0.39;100.00
12475;BME280;6302;42.624;23.334;2024-01-30T02:30:37;95125.78;;;-0.35;100.00
12475;BME280;6302;42.624;23.334;2024-01-30T02:33:04;95124.69;;;-0.34;100.00
12475;BME280;6302;42.624;23.334;2024-01-30T02:35:32;95125.72;;;-0.30;100.00
12475;BME280;6302;42.624;23.334;2024-01-30T02:37:58;95123.03;;;-0.25;100.00
12475;BME280;6302;42.624;23.334;2024-01-30T02:40:27;95123.47;;;-0.18;100.00
12475;BME280;6302;42.624;23.334;2024-01-30T02:42:53;95121.34;;;-0.16;100.00
12475;BME280;6302;42.624;23.334;2024-01-30T02:45:20;95128.34;;;-0.12;100.00
12475;BME280;6302;42.624;23.334;2024-01-30T02:47:47;95128.13;;;-0.15;100.00
12475;BME280;6302;42.624;23.334;2024-01-30T02:50:14;95126.88;;;-0.18;100.00
12475;BME280;6302;42.624;23.334;2024-01-30T02:52:41;95132.56;;;-0.16;100.00
12475;BME280;6302;42.624;23.334;2024-01-30T02:55:09;95126.50;;;-0.11;100.00
12475;BME280;6302;42.624;23.334;2024-01-30T02:57:37;95125.13;;;-0.04;100.00
12475;BME280;6302;42.624;23.334;2024-01-30T03:00:05;95123.97;;;0.03;100.00
12475;BME280;6302;42.624;23.334;2024-01-30T03:02:33;95118.44;;;0.09;100.00
12475;BME280;6302;42.624;23.334;2024-01-30T03:05:00;95127.22;;;0.13;100.00
12475;BME280;6302;42.624;23.334;2024-01-30T03:07:27;95123.09;;;0.12;100.00
12475;BME280;6302;42.624;23.334;2024-01-30T03:09:54;95125.41;;;0.14;100.00
12475;BME280;6302;42.624;23.334;2024-01-30T03:12:21;95127.44;;;0.17;100.00
12475;BME280;6302;42.624;23.334;2024-01-30T03:14:49;95125.63;;;0.17;100.00
12475;BME280;6302;42.624;23.334;2024-01-30T03:17:16;95117.22;;;0.20;100.00
12475;BME280;6302;42.624;23.334;2024-01-30T03:19:42;95130.47;;;0.24;100.00
12475;BME280;6302;42.624;23.334;2024-01-30T03:22:09;95120.84;;;0.24;100.00
12475;BME280;6302;42.624;23.334;2024-01-30T03:24:36;95115.63;;;0.24;100.00
12475;BME280;6302;42.624;23.334;2024-01-30T03:27:03;95114.06;;;0.23;100.00
12475;BME280;6302;42.624;23.334;2024-01-30T03:29:30;95109.97;;;0.17;100.00
12475;BME280;6302;42.624;23.334;2024-01-30T03:31:58;95111.44;;;0.23;100.00
12475;BME280;6302;42.624;23.334;2024-01-30T03:34:24;95111.53;;;0.18;100.00
12475;BME280;6302;42.624;23.334;2024-01-30T03:36:51;95110.72;;;0.18;100.00
12475;BME280;6302;42.624;23.334;2024-01-30T03:39:18;95110.66;;;0.23;100.00
12475;BME280;6302;42.624;23.334;2024-01-30T03:41:45;95113.56;;;0.21;100.00
12475;BME280;6302;42.624;23.334;2024-01-30T03:44:12;95111.81;;;0.17;100.00
12475;BME280;6302;42.624;23.334;2024-01-30T03:46:38;95113.16;;;0.14;100.00
12475;BME280;6302;42.624;23.334;2024-01-30T03:49:06;95114.13;;;0.18;100.00
12475;BME280;6302;42.624;23.334;2024-01-30T03:51:35;95106.78;;;0.20;100.00
12475;BME280;6302;42.624;23.334;2024-01-30T03:54:02;95110.41;;;0.24;100.00
12475;BME280;6302;42.624;23.334;2024-01-30T03:56:28;95104.78;;;0.17;100.00
12475;BME280;6302;42.624;23.334;2024-01-30T03:58:55;95106.84;;;0.15;100.00
12475;BME280;6302;42.624;23.334;2024-01-30T04:01:22;95101.44;;;0.12;100.00
12475;BME280;6302;42.624;23.334;2024-01-30T04:03:49;95106.44;;;0.08;99.87
12475;BME280;6302;42.624;23.334;2024-01-30T04:06:17;95110.69;;;0.04;100.00
12475;BME280;6302;42.624;23.334;2024-01-30T04:08:44;95098.28;;;-0.04;100.00
12475;BME280;6302;42.624;23.334;2024-01-30T04:11:10;95095.97;;;-0.06;99.05
12475;BME280;6302;42.624;23.334;2024-01-30T04:13:37;95107.41;;;-0.07;98.60
12475;BME280;6302;42.624;23.334;2024-01-30T04:16:04;95106.16;;;-0.09;98.81
12475;BME280;6302;42.624;23.334;2024-01-30T04:18:31;95102.94;;;-0.01;98.61
12475;BME280;6302;42.624;23.334;2024-01-30T04:20:59;95097.91;;;0.03;98.59
12475;BME280;6302;42.624;23.334;2024-01-30T04:23:27;95105.66;;;0.08;98.91
12475;BME280;6302;42.624;23.334;2024-01-30T04:25:54;95103.41;;;0.01;98.00
12475;BME280;6302;42.624;23.334;2024-01-30T04:28:21;95103.34;;;0.06;97.87
12475;BME280;6302;42.624;23.334;2024-01-30T04:30:47;95101.44;;;0.12;97.11
12475;BME280;6302;42.624;23.334;2024-01-30T04:33:14;95110.53;;;0.14;96.81
12475;BME280;6302;42.624;23.334;2024-01-30T04:35:42;95111.09;;;0.11;96.88
12475;BME280;6302;42.624;23.334;2024-01-30T04:38:09;95113.72;;;0.11;96.50
12475;BME280;6302;42.624;23.334;2024-01-30T04:40:37;95111.88;;;0.12;96.62
12475;BME280;6302;42.624;23.334;2024-01-30T04:43:04;95073.75;;;-0.22;96.03
12475;BME280;6302;42.624;23.334;2024-01-30T04:45:31;95106.03;;;0.01;96.38
12475;BME280;6302;42.624;23.334;2024-01-30T04:47:57;95115.09;;;0.04;95.56
12475;BME280;6302;42.624;23.334;2024-01-30T04:50:24;95116.88;;;0.08;94.25
12475;BME280;6302;42.624;23.334;2024-01-30T04:52:52;95114.97;;;-0.05;94.47
12475;BME280;6302;42.624;23.334;2024-01-30T04:55:19;95121.22;;;-0.06;93.70
12475;BME280;6302;42.624;23.334;2024-01-30T04:57:47;95119.72;;;-0.12;93.73
12475;BME280;6302;42.624;23.334;2024-01-30T05:00:14;95126.75;;;-0.08;93.65
12475;BME280;6302;42.624;23.334;2024-01-30T05:02:41;95134.31;;;-0.11;94.18
12475;BME280;6302;42.624;23.334;2024-01-30T05:05:08;95133.78;;;-0.08;94.29
12475;BME280;6302;42.624;23.334;2024-01-30T05:07:35;95133.53;;;-0.12;94.60
12475;BME280;6302;42.624;23.334;2024-01-30T05:10:02;95125.25;;;-0.14;95.11
12475;BME280;6302;42.624;23.334;2024-01-30T05:12:29;95130.22;;;-0.17;96.05
12475;BME280;6302;42.624;23.334;2024-01-30T05:14:57;95132.56;;;-0.16;96.22
12475;BME280;6302;42.624;23.334;2024-01-30T05:17:24;95143.25;;;-0.17;96.00
12475;BME280;6302;42.624;23.334;2024-01-30T05:19:51;95137.00;;;-0.16;96.04
12475;BME280;6302;42.624;23.334;2024-01-30T05:22:17;95131.00;;;-0.17;96.36
12475;BME280;6302;42.624;23.334;2024-01-30T05:24:44;95133.97;;;-0.23;96.57
12475;BME280;6302;42.624;23.334;2024-01-30T05:27:11;95139.09;;;-0.18;96.04
12475;BME280;6302;42.624;23.334;2024-01-30T05:29:39;95135.78;;;-0.24;95.07
12475;BME280;6302;42.624;23.334;2024-01-30T05:32:07;95140.78;;;-0.27;94.75
12475;BME280;6302;42.624;23.334;2024-01-30T05:34:34;95147.47;;;-0.21;96.27
12475;BME280;6302;42.624;23.334;2024-01-30T05:37:01;95140.16;;;-0.19;97.01
12475;BME280;6302;42.624;23.334;2024-01-30T05:39:28;95143.00;;;-0.16;96.92
12475;BME280;6302;42.624;23.334;2024-01-30T05:41:54;95138.31;;;-0.19;98.47
12475;BME280;6302;42.624;23.334;2024-01-30T05:44:22;95144.88;;;-0.21;99.47
12475;BME280;6302;42.624;23.334;2024-01-30T05:46:49;95144.38;;;-0.23;100.00
12475;BME280;6302;42.624;23.334;2024-01-30T05:49:17;95145.72;;;-0.26;100.00
12475;BME280;6302;42.624;23.334;2024-01-30T05:51:45;95144.66;;;-0.25;100.00
12475;BME280;6302;42.624;23.334;2024-01-30T05:54:12;95148.03;;;-0.24;100.00
12475;BME280;6302;42.624;23.334;2024-01-30T05:56:39;95141.78;;;-0.23;100.00
12475;BME280;6302;42.624;23.334;2024-01-30T05:59:06;95140.69;;;-0.22;100.00
12475;BME280;6302;42.624;23.334;2024-01-30T06:01:32;95133.19;;;-0.24;100.00
12475;BME280;6302;42.624;23.334;2024-01-30T06:04:00;95127.69;;;-0.22;100.00
12475;BME280;6302;42.624;23.334;2024-01-30T06:06:28;95139.59;;;-0.16;100.00
12475;BME280;6302;42.624;23.334;2024-01-30T06:08:55;95122.69;;;-0.19;100.00
12475;BME280;6302;42.624;23.334;2024-01-30T06:11:21;95134.31;;;-0.11;100.00
12475;BME280;6302;42.624;23.334;2024-01-30T06:13:48;95134.31;;;-0.11;100.00
12475;BME280;6302;42.624;23.334;2024-01-30T06:16:15;95138.50;;;-0.10;100.00
12475;BME280;6302;42.624;23.334;2024-01-30T06:18:42;95140.31;;;-0.11;100.00
12475;BME280;6302;42.624;23.334;2024-01-30T06:21:08;95148.34;;;-0.07;100.00
12475;BME280;6302;42.624;23.334;2024-01-30T06:23:37;95142.63;;;-0.09;100.00
12475;BME280;6302;42.624;23.334;2024-01-30T06:26:03;95137.53;;;-0.19;100.00
12475;BME280;6302;42.624;23.334;2024-01-30T06:28:31;95138.75;;;-0.12;100.00
12475;BME280;6302;42.624;23.334;2024-01-30T06:30:58;95146.31;;;-0.10;100.00
12475;BME280;6302;42.624;23.334;2024-01-30T06:33:27;95147.34;;;-0.11;100.00
12475;BME280;6302;42.624;23.334;2024-01-30T06:35:53;95151.47;;;-0.05;100.00
12475;BME280;6302;42.624;23.334;2024-01-30T06:38:20;95149.91;;;-0.06;100.00
12475;BME280;6302;42.624;23.334;2024-01-30T06:40:51;95148.22;;;0.03;99.92
12475;BME280;6302;42.624;23.334;2024-01-30T06:43:18;95150.38;;;-0.04;98.58
12475;BME280;6302;42.624;23.334;2024-01-30T06:45:44;95156.88;;;-0.02;96.75
12475;BME280;6302;42.624;23.334;2024-01-30T06:48:14;95150.25;;;-0.13;96.35
12475;BME280;6302;42.624;23.334;2024-01-30T06:50:40;95158.44;;;-0.24;94.44
12475;BME280;6302;42.624;23.334;2024-01-30T06:53:07;95157.34;;;-0.18;96.12
12475;BME280;6302;42.624;23.334;2024-01-30T06:55:34;95132.03;;;-0.36;95.71
12475;BME280;6302;42.624;23.334;2024-01-30T06:58:02;95161.50;;;-0.17;93.71
12475;BME280;6302;42.624;23.334;2024-01-30T07:00:29;95156.16;;;-0.07;94.68
12475;BME280;6302;42.624;23.334;2024-01-30T07:02:56;95167.31;;;-0.02;94.41
12475;BME280;6302;42.624;23.334;2024-01-30T07:05:22;95160.69;;;0.06;93.97
12475;BME280;6302;42.624;23.334;2024-01-30T07:07:49;95166.34;;;0.13;92.35
12475;BME280;6302;42.624;23.334;2024-01-30T07:10:18;95162.75;;;0.09;91.07
12475;BME280;6302;42.624;23.334;2024-01-30T07:12:45;95156.16;;;-0.07;91.66
12475;BME280;6302;42.624;23.334;2024-01-30T07:15:13;95164.94;;;0.02;92.26
12475;BME280;6302;42.624;23.334;2024-01-30T07:17:43;95167.72;;;0.06;93.31
12475;BME280;6302;42.624;23.334;2024-01-30T07:20:10;95167.03;;;0.00;92.88
12475;BME280;6302;42.624;23.334;2024-01-30T07:22:37;95174.78;;;0.05;93.47
12475;BME280;6302;42.624;23.334;2024-01-30T07:25:05;95154.69;;;-0.13;91.07
12475;BME280;6302;42.624;23.334;2024-01-30T07:27:32;95171.03;;;-0.08;90.73
12475;BME280;6302;42.624;23.334;2024-01-30T07:29:59;95177.59;;;0.09;91.08
12475;BME280;6302;42.624;23.334;2024-01-30T07:32:27;95165.78;;;0.16;89.80
12475;BME280;6302;42.624;23.334;2024-01-30T07:34:54;95162.88;;;0.18;88.70
12475;BME280;6302;42.624;23.334;2024-01-30T07:37:20;95157.13;;;0.21;88.25
12475;BME280;6302;42.624;23.334;2024-01-30T07:39:47;95157.34;;;0.24;86.79
12475;BME280;6302;42.624;23.334;2024-01-30T07:42:14;95159.88;;;0.29;87.10
12475;BME280;6302;42.624;23.334;2024-01-30T07:44:41;95143.81;;;0.22;86.01
12475;BME280;6302;42.624;23.334;2024-01-30T07:47:08;95161.69;;;0.47;85.43
12475;BME280;6302;42.624;23.334;2024-01-30T07:49:36;95157.19;;;0.34;86.21
12475;BME280;6302;42.624;23.334;2024-01-30T07:52:04;95158.97;;;0.39;85.81
12475;BME280;6302;42.624;23.334;2024-01-30T07:54:32;95154.16;;;0.46;86.23
12475;BME280;6302;42.624;23.334;2024-01-30T07:57:01;95159.00;;;0.52;85.78
12475;BME280;6302;42.624;23.334;2024-01-30T07:59:28;95166.91;;;0.66;85.57
12475;BME280;6302;42.624;23.334;2024-01-30T08:01:54;95164.31;;;0.66;86.18
12475;BME280;6302;42.624;23.334;2024-01-30T08:04:21;95167.50;;;0.77;85.87
12475;BME280;6302;42.624;23.334;2024-01-30T08:06:49;95127.16;;;0.55;83.62
12475;BME280;6302;42.624;23.334;2024-01-30T08:09:16;95155.38;;;0.86;84.80
12475;BME280;6302;42.624;23.334;2024-01-30T08:11:43;95156.84;;;0.92;83.42
12475;BME280;6302;42.624;23.334;2024-01-30T08:14:10;95158.09;;;0.94;83.21
12475;BME280;6302;42.624;23.334;2024-01-30T08:16:36;95161.50;;;0.95;82.54
12475;BME280;6302;42.624;23.334;2024-01-30T08:19:03;95154.56;;;1.04;82.55
12475;BME280;6302;42.624;23.334;2024-01-30T08:21:30;95162.50;;;1.12;81.56
12475;BME280;6302;42.624;23.334;2024-01-30T08:24:03;95162.59;;;1.07;80.02
12475;BME280;6302;42.624;23.334;2024-01-30T08:26:29;95159.59;;;1.14;81.01
12475;BME280;6302;42.624;23.334;2024-01-30T08:28:56;95155.78;;;1.25;80.55
12475;BME280;6302;42.624;23.334;2024-01-30T08:31:23;95162.09;;;1.38;79.71
12475;BME280;6302;42.624;23.334;2024-01-30T08:33:50;95164.31;;;1.44;78.71
12475;BME280;6302;42.624;23.334;2024-01-30T08:36:17;95164.41;;;1.39;79.21
12475;BME280;6302;42.624;23.334;2024-01-30T08:38:44;95161.22;;;1.42;81.10
12475;BME280;6302;42.624;23.334;2024-01-30T08:41:12;95174.59;;;1.54;78.84
12475;BME280;6302;42.624;23.334;2024-01-30T08:43:39;95171.88;;;1.59;76.92
12475;BME280;6302;42.624;23.334;2024-01-30T08:46:06;95180.94;;;1.48;78.65
12475;BME280;6302;42.624;23.334;2024-01-30T08:48:33;95174.56;;;1.41;76.73
12475;BME280;6302;42.624;23.334;2024-01-30T08:50:59;95183.06;;;1.46;77.55
12475;BME280;6302;42.624;23.334;2024-01-30T08:53:26;95187.25;;;1.47;78.26
12475;BME280;6302;42.624;23.334;2024-01-30T08:55:53;95183.88;;;1.60;77.28
12475;BME280;6302;42.624;23.334;2024-01-30T08:58:21;95179.63;;;1.64;77.00
12475;BME280;6302;42.624;23.334;2024-01-30T09:00:48;95177.69;;;1.83;77.06
12475;BME280;6302;42.624;23.334;2024-01-30T09:03:17;95197.06;;;1.82;75.88
12475;BME280;6302;42.624;23.334;2024-01-30T09:05:43;95185.06;;;1.81;77.20
12475;BME280;6302;42.624;23.334;2024-01-30T09:08:10;95186.91;;;1.94;76.50
12475;BME280;6302;42.624;23.334;2024-01-30T09:10:37;95184.25;;;2.08;73.80
12475;BME280;6302;42.624;23.334;2024-01-30T09:13:04;95184.84;;;1.91;75.05
12475;BME280;6302;42.624;23.334;2024-01-30T09:15:32;95180.41;;;1.92;75.88
12475;BME280;6302;42.624;23.334;2024-01-30T09:17:59;95178.78;;;1.82;74.85
12475;BME280;6302;42.624;23.334;2024-01-30T09:20:26;95177.00;;;1.91;74.12
12475;BME280;6302;42.624;23.334;2024-01-30T09:22:52;95167.31;;;1.78;74.47
12475;BME280;6302;42.624;23.334;2024-01-30T09:25:19;95175.75;;;1.89;75.23
12475;BME280;6302;42.624;23.334;2024-01-30T09:27:46;95170.22;;;1.90;74.52
12475;BME280;6302;42.624;23.334;2024-01-30T09:30:13;95164.53;;;1.88;75.47
12475;BME280;6302;42.624;23.334;2024-01-30T09:32:43;95163.53;;;1.98;76.04
12475;BME280;6302;42.624;23.334;2024-01-30T09:35:10;95166.56;;;1.91;76.16
12475;BME280;6302;42.624;23.334;2024-01-30T09:37:36;95163.34;;;1.81;75.49
12475;BME280;6302;42.624;23.334;2024-01-30T09:40:04;95169.56;;;1.85;76.77
12475;BME280;6302;42.624;23.334;2024-01-30T09:42:33;95164.16;;;1.95;73.19
12475;BME280;6302;42.624;23.334;2024-01-30T09:45:01;95161.63;;;1.76;73.60
12475;BME280;6302;42.624;23.334;2024-01-30T09:47:31;95157.06;;;1.68;74.81
12475;BME280;6302;42.624;23.334;2024-01-30T09:50:00;95154.84;;;1.62;74.65
12475;BME280;6302;42.624;23.334;2024-01-30T09:52:31;95161.31;;;1.78;74.50
12475;BME280;6302;42.624;23.334;2024-01-30T09:54:59;95154.25;;;1.78;74.62
12475;BME280;6302;42.624;23.334;2024-01-30T09:57:26;95145.16;;;1.89;75.32
12475;BME280;6302;42.624;23.334;2024-01-30T09:59:53;95144.75;;;2.10;74.24
12475;BME280;6302;42.624;23.334;2024-01-30T10:02:20;95156.00;;;1.96;73.57
12475;BME280;6302;42.624;23.334;2024-01-30T10:04:47;95147.59;;;1.72;72.81
12475;BME280;6302;42.624;23.334;2024-01-30T10:07:16;95147.88;;;1.57;74.45
12475;BME280;6302;42.624;23.334;2024-01-30T10:09:43;95147.69;;;1.67;74.47
12475;BME280;6302;42.624;23.334;2024-01-30T10:12:10;95139.38;;;1.65;73.92
12475;BME280;6302;42.624;23.334;2024-01-30T10:14:38;95147.84;;;1.44;75.47
12475;BME280;6302;42.624;23.334;2024-01-30T10:17:06;95142.44;;;1.40;76.52
12475;BME280;6302;42.624;23.334;2024-01-30T10:19:33;95144.97;;;1.45;76.37
12475;BME280;6302;42.624;23.334;2024-01-30T10:22:00;95141.97;;;1.38;77.66
12475;BME280;6302;42.624;23.334;2024-01-30T10:24:29;95130.81;;;1.46;79.47
12475;BME280;6302;42.624;23.334;2024-01-30T10:26:56;95139.25;;;1.57;78.32
12475;BME280;6302;42.624;23.334;2024-01-30T10:29:23;95139.16;;;1.62;77.33
12475;BME280;6302;42.624;23.334;2024-01-30T10:31:58;95137.41;;;1.84;77.97
12475;BME280;6302;42.624;23.334;2024-01-30T10:34:25;95135.47;;;1.76;77.24
12475;BME280;6302;42.624;23.334;2024-01-30T10:37:06;95139.06;;;1.53;79.46
12475;BME280;6302;42.624;23.334;2024-01-30T10:39:39;95146.19;;;1.34;80.69
12475;BME280;6302;42.624;23.334;2024-01-30T10:42:07;95140.19;;;1.33;80.19
12475;BME280;6302;42.624;23.334;2024-01-30T10:44:39;95138.28;;;1.39;80.43
12475;BME280;6302;42.624;23.334;2024-01-30T10:47:12;95138.19;;;1.44;81.86
12475;BME280;6302;42.624;23.334;2024-01-30T10:49:41;95135.47;;;1.36;83.01
12475;BME280;6302;42.624;23.334;2024-01-30T10:52:09;95128.69;;;1.21;84.52
12475;BME280;6302;42.624;23.334;2024-01-30T10:54:40;95127.31;;;1.10;84.08
12475;BME280;6302;42.624;23.334;2024-01-30T10:57:10;95126.34;;;1.06;86.55
12475;BME280;6302;42.624;23.334;2024-01-30T10:59:38;95114.34;;;1.05;87.25
12475;BME280;6302;42.624;23.334;2024-01-30T11:02:05;95113.13;;;1.16;87.26
12475;BME280;6302;42.624;23.334;2024-01-30T11:04:36;95095.03;;;1.33;87.09
12475;BME280;6302;42.624;23.334;2024-01-30T11:07:13;95115.94;;;1.60;84.89
12475;BME280;6302;42.624;23.334;2024-01-30T11:09:48;95109.25;;;1.54;83.42
12475;BME280;6302;42.624;23.334;2024-01-30T11:12:15;95108.09;;;1.60;83.18
12475;BME280;6302;42.624;23.334;2024-01-30T11:14:42;95107.03;;;1.61;82.68
12475;BME280;6302;42.624;23.334;2024-01-30T11:17:09;95107.97;;;1.79;83.07
12475;BME280;6302;42.624;23.334;2024-01-30T11:19:38;95109.50;;;1.93;81.64
12475;BME280;6302;42.624;23.334;2024-01-30T11:22:06;95108.66;;;1.84;81.64
12475;BME280;6302;42.624;23.334;2024-01-30T11:24:39;95103.34;;;1.89;80.23
12475;BME280;6302;42.624;23.334;2024-01-30T11:27:09;95108.16;;;1.96;80.16
12475;BME280;6302;42.624;23.334;2024-01-30T11:29:36;95108.09;;;1.87;80.98
12475;BME280;6302;42.624;23.334;2024-01-30T11:32:04;95102.91;;;2.10;79.18
12475;BME280;6302;42.624;23.334;2024-01-30T11:34:32;95107.88;;;2.33;82.61
12475;BME280;6302;42.624;23.334;2024-01-30T11:37:03;95111.53;;;2.46;76.58
12475;BME280;6302;42.624;23.334;2024-01-30T11:39:30;95111.97;;;2.61;75.91
12475;BME280;6302;42.624;23.334;2024-01-30T11:41:57;95106.28;;;2.90;76.54
12475;BME280;6302;42.624;23.334;2024-01-30T11:44:26;95114.16;;;2.90;73.49
12475;BME280;6302;42.624;23.334;2024-01-30T11:46:53;95106.19;;;2.73;75.62
12475;BME280;6302;42.624;23.334;2024-01-30T11:49:20;95101.06;;;2.90;77.15
12475;BME280;6302;42.624;23.334;2024-01-30T11:51:47;95106.59;;;3.19;78.76
12475;BME280;6302;42.624;23.334;2024-01-30T11:54:15;95103.31;;;3.45;74.57
12475;BME280;6302;42.624;23.334;2024-01-30T11:56:42;95101.69;;;3.66;74.08
12475;BME280;6302;42.624;23.334;2024-01-30T11:59:09;95094.97;;;3.90;70.14
12475;BME280;6302;42.624;23.334;2024-01-30T12:01:38;95094.38;;;3.85;68.23
12475;BME280;6302;42.624;23.334;2024-01-30T12:04:05;95086.81;;;4.01;68.39
12475;BME280;6302;42.624;23.334;2024-01-30T12:06:34;95081.25;;;3.93;69.88
12475;BME280;6302;42.624;23.334;2024-01-30T12:09:02;95080.19;;;4.20;69.43
12475;BME280;6302;42.624;23.334;2024-01-30T12:11:29;95080.97;;;4.21;65.34
12475;BME280;6302;42.624;23.334;2024-01-30T12:13:56;95082.94;;;3.98;67.41
12475;BME280;6302;42.624;23.334;2024-01-30T12:16:23;95068.47;;;3.92;65.51
12475;BME280;6302;42.624;23.334;2024-01-30T12:18:59;95064.13;;;3.96;67.14
12475;BME280;6302;42.624;23.334;2024-01-30T12:21:26;95054.81;;;3.64;67.83
12475;BME280;6302;42.624;23.334;2024-01-30T12:23:53;95059.09;;;3.52;69.39
12475;BME280;6302;42.624;23.334;2024-01-30T12:26:20;95054.84;;;3.25;71.58
12475;BME280;6302;42.624;23.334;2024-01-30T12:28:48;95057.69;;;3.06;71.79
12475;BME280;6302;42.624;23.334;2024-01-30T12:31:15;95055.28;;;2.88;72.42
12475;BME280;6302;42.624;23.334;2024-01-30T12:33:42;95047.91;;;2.90;73.66
12475;BME280;6302;42.624;23.334;2024-01-30T12:36:11;95040.16;;;2.85;73.47
12475;BME280;6302;42.624;23.334;2024-01-30T12:38:38;95039.38;;;2.84;73.80
12475;BME280;6302;42.624;23.334;2024-01-30T12:41:07;95045.34;;;2.98;73.74
12475;BME280;6302;42.624;23.334;2024-01-30T12:43:35;95034.59;;;3.08;74.66
12475;BME280;6302;42.624;23.334;2024-01-30T12:46:03;95028.78;;;3.28;72.45
12475;BME280;6302;42.624;23.334;2024-01-30T12:48:29;95035.72;;;3.16;70.42
12475;BME280;6302;42.624;23.334;2024-01-30T12:50:56;95040.81;;;2.90;71.18
12475;BME280;6302;42.624;23.334;2024-01-30T12:53:25;95028.28;;;2.79;74.12
12475;BME280;6302;42.624;23.334;2024-01-30T12:55:52;95032.38;;;2.93;74.56
12475;BME280;6302;42.624;23.334;2024-01-30T12:58:19;95022.97;;;2.92;73.10
12475;BME280;6302;42.624;23.334;2024-01-30T13:00:46;95025.91;;;2.99;72.86
12475;BME280;6302;42.624;23.334;2024-01-30T13:03:13;95023.22;;;2.82;73.14